Ana Sayfa
METAR-TAF:

METAR-TAF

Havaalanları :

Lanzhou, Çin

Enlem: 36-02N, Boylam: 103-52E, yükseklik: 1518 m

Güncel hava durumu gözlemi

Rapor saat 20:00 UTC de 39 dakika önce yapıldı.
Rüzgar değişken yönden 2 kt
Sıcaklık 12°C
Nem 100%
Basınç 1012 hPa
Görüş mesafesi 10 km veya daha fazla
1600 ft yükseklikte az bulutlu
4000 ft yükseklikte çok bulutlu

METAR: ZLLL 262000Z VRB01MPS 9999 FEW016 OVC040 12/12 Q1012 NOSIG

Saat: 04:39 (20:39 UTC)

Tahmin

Rapor saat 15:09 UTC de 5 saat ve 30 dakika önce yapıldı.
Ayın 26'si saat 18 UTC'den ayın 27'si saat 18 UTC'ye kadar geçerli Tahmin
Rüzgar kuzeydoğudan 6 kt
Görüş mesafesi: 4000 m
1100 ft yükseklikte parçalı bulutlu
4000 ft yükseklikte çok bulutlu
hafif yağmur
Geçici
ayın 26'si saat 22 UTC'den ayın 27'si saat 02 UTC'ye kadar
yağmur

TAF: ZLLL 261509Z 2618/2718 04003MPS 4000 -RA SCT011 OVC040 TX19/2709Z TN10/2622Z TEMPO 2622/2702 RA

4.000'den fazla havaalanı için hava durumu gözlemleri ve tahminleri (METAR ve TAF raporları).

Kullanılabilir istasyonlar harita üzerinde sarı ve kırmızı noktalarla gösterilir.

İstasyonun adını görmek için fareyi noktanın üzerinde gezdirin.

Sonrasında hava gözlem ve tahminlerini görmek için tıklayın.

Haritayı değiştirmek için: yaklaştırmak için siyah artı işaretli yeşil düğmeye ve uzaklaştırmak için de eksi işaretli düğmeye hızla tıklayın; bitişik haritalar için yeşil okları kullanın.


METAR-TAF: